createdAt,value
2023-05-10T00:05:50.939Z,9.10
2023-05-10T00:11:56.310Z,8.37
2023-05-10T00:17:58.413Z,8.90
2023-05-10T00:24:07.988Z,9.16
2023-05-10T00:30:14.581Z,9.27
2023-05-10T00:36:17.364Z,8.94
2023-05-10T00:42:22.848Z,8.93
2023-05-10T00:48:35.481Z,8.01
2023-05-10T00:54:40.856Z,9.02
2023-05-10T01:00:47.376Z,9.20
2023-05-10T01:06:52.818Z,8.42
2023-05-10T01:12:59.335Z,8.72
2023-05-10T01:19:01.767Z,7.86
2023-05-10T01:25:16.289Z,7.58
2023-05-10T01:31:56.704Z,7.35
2023-05-10T01:38:11.515Z,8.28
2023-05-10T01:44:29.074Z,8.85
2023-05-10T01:50:32.522Z,8.16
2023-05-10T02:02:56.149Z,8.36
2023-05-10T02:08:58.978Z,8.34
2023-05-10T02:15:06.378Z,7.59
2023-05-10T02:21:10.961Z,8.20
2023-05-10T02:27:19.057Z,7.45
2023-05-10T02:33:25.730Z,8.23
2023-05-10T02:39:33.451Z,7.97
2023-05-10T02:45:37.907Z,8.23
2023-05-10T02:51:48.431Z,7.43
2023-05-10T02:57:58.976Z,7.85
2023-05-10T03:04:12.112Z,8.13
2023-05-10T03:10:26.125Z,7.79
2023-05-10T03:16:58.564Z,8.24
2023-05-10T03:23:17.060Z,8.06
2023-05-10T03:29:36.525Z,7.95
2023-05-10T03:35:55.114Z,7.28
2023-05-10T03:42:02.949Z,7.51
2023-05-10T03:48:28.411Z,7.75
2023-05-10T03:54:37.761Z,8.08
2023-05-10T04:00:45.268Z,7.92
2023-05-10T04:06:48.766Z,7.95
2023-05-10T04:12:51.263Z,7.97
2023-05-10T04:18:53.693Z,7.77
2023-05-10T04:25:12.302Z,8.00
2023-05-10T04:31:15.744Z,8.00
2023-05-10T04:37:21.188Z,8.18
2023-05-10T04:43:23.636Z,8.19
2023-05-10T04:49:36.702Z,8.32
2023-05-10T04:55:41.723Z,8.27
2023-05-10T05:01:51.343Z,7.53
2023-05-10T05:08:15.719Z,7.55
2023-05-10T05:14:25.911Z,8.82
2023-05-10T05:20:37.291Z,8.74
2023-05-10T05:26:42.040Z,8.84
2023-05-10T05:32:53.801Z,8.25
2023-05-10T05:38:59.229Z,9.36
2023-05-10T05:52:42.595Z,9.37
2023-05-10T05:59:00.362Z,9.52
2023-05-10T06:05:10.707Z,10.18
2023-05-10T06:11:13.083Z,10.68
2023-05-10T06:17:29.393Z,11.12
2023-05-10T06:23:40.896Z,10.06
2023-05-10T06:29:43.562Z,11.05
2023-05-10T06:35:57.697Z,11.54
2023-05-10T06:41:59.554Z,10.35
2023-05-10T06:48:02.050Z,11.33
2023-05-10T06:54:07.024Z,11.81
2023-05-10T07:00:11.500Z,12.03
2023-05-10T07:06:32.835Z,11.51
2023-05-10T07:12:41.046Z,12.40
2023-05-10T07:18:43.495Z,12.66
2023-05-10T07:24:55.864Z,12.46
2023-05-10T07:37:19.964Z,12.61
2023-05-10T07:43:22.442Z,12.24
2023-05-10T07:49:39.384Z,13.62
2023-05-10T07:56:33.173Z,13.32
2023-05-10T08:02:46.223Z,14.02
2023-05-10T08:08:58.957Z,14.54
2023-05-10T08:15:05.135Z,14.43
2023-05-10T08:21:08.593Z,14.98
2023-05-10T08:27:14.108Z,15.15
2023-05-10T08:33:24.604Z,15.43
2023-05-10T08:39:36.961Z,15.06
2023-05-10T08:45:43.678Z,15.25
2023-05-10T08:51:55.791Z,15.39
2023-05-10T08:58:09.282Z,15.82
2023-05-10T09:04:12.196Z,16.34
2023-05-10T09:10:15.613Z,15.18
2023-05-10T09:16:21.948Z,15.67
2023-05-10T09:22:28.021Z,15.75
2023-05-10T09:28:34.005Z,15.26
2023-05-10T09:34:45.744Z,15.14
2023-05-10T09:41:00.056Z,14.74
2023-05-10T09:47:11.565Z,15.58
2023-05-10T09:53:18.032Z,15.49
2023-05-10T09:59:22.538Z,15.82
2023-05-10T10:05:36.021Z,15.59
2023-05-10T10:11:40.497Z,15.07
2023-05-10T10:17:47.008Z,15.28
2023-05-10T10:24:00.664Z,14.79
2023-05-10T10:30:16.268Z,14.09
2023-05-10T10:36:18.502Z,14.90
2023-05-10T10:42:50.122Z,15.52
2023-05-10T10:49:18.912Z,15.00
2023-05-10T10:55:30.202Z,15.50
2023-05-10T11:01:40.683Z,14.63
2023-05-10T11:08:00.219Z,15.18
2023-05-10T11:14:07.488Z,15.40
2023-05-10T11:20:24.390Z,14.37
2023-05-10T11:26:32.750Z,15.37
2023-05-10T11:32:48.995Z,15.72
2023-05-10T11:38:51.752Z,15.35
2023-05-10T11:44:58.304Z,16.11
2023-05-10T11:51:03.701Z,16.11
2023-05-10T11:57:09.040Z,16.23
2023-05-10T12:03:24.481Z,15.79
2023-05-10T12:09:42.552Z,16.18
2023-05-10T12:15:52.279Z,16.08
2023-05-10T12:21:54.248Z,16.09
2023-05-10T12:28:07.799Z,16.00
2023-05-10T12:34:24.307Z,16.12
2023-05-10T12:40:33.784Z,15.76
2023-05-10T12:46:37.283Z,16.26
2023-05-10T12:52:39.754Z,15.97
2023-05-10T12:58:43.312Z,15.97
2023-05-10T13:04:50.995Z,16.09
2023-05-10T13:10:56.781Z,15.76
2023-05-10T13:17:01.284Z,15.76
2023-05-10T13:23:16.389Z,16.06
2023-05-10T13:29:22.665Z,15.75
2023-05-10T13:35:25.206Z,15.95
2023-05-10T13:41:27.644Z,16.24
2023-05-10T13:47:33.224Z,16.32
2023-05-10T13:53:45.705Z,16.71
2023-05-10T13:59:50.049Z,16.53
2023-05-10T14:05:53.612Z,16.34
2023-05-10T14:12:04.924Z,16.95
2023-05-10T14:18:07.622Z,16.53
2023-05-10T14:24:10.073Z,16.56
2023-05-10T14:30:13.598Z,16.58
2023-05-10T14:36:23.986Z,16.14
2023-05-10T14:42:28.665Z,16.91
2023-05-10T14:48:30.957Z,17.23
2023-05-10T14:54:34.651Z,17.35
2023-05-10T15:00:37.009Z,17.07
2023-05-10T15:06:50.675Z,16.26
2023-05-10T15:12:55.062Z,16.76
2023-05-10T15:19:00.673Z,16.62
2023-05-10T15:25:04.037Z,15.83
2023-05-10T15:31:06.533Z,15.63
2023-05-10T15:37:10.999Z,16.20
2023-05-10T15:43:13.489Z,15.72
2023-05-10T15:49:15.948Z,16.06
2023-05-10T15:55:18.673Z,15.81
2023-05-10T16:01:29.584Z,15.18
2023-05-10T16:07:38.332Z,15.58
2023-05-10T16:13:40.930Z,15.77
2023-05-10T16:19:43.371Z,15.73
2023-05-10T16:25:46.868Z,15.48
2023-05-10T16:31:48.684Z,15.38
2023-05-10T16:37:54.883Z,14.99
2023-05-10T16:44:01.901Z,15.12
2023-05-10T16:50:05.796Z,15.22
2023-05-10T16:56:08.256Z,14.99
2023-05-10T17:02:13.304Z,13.76
2023-05-10T17:08:16.222Z,14.50
2023-05-10T17:14:27.101Z,14.11
2023-05-10T17:20:36.417Z,13.30
2023-05-10T17:26:39.686Z,14.60
2023-05-10T17:32:48.247Z,14.43
2023-05-10T17:38:51.694Z,13.32
2023-05-10T17:44:55.153Z,13.75
2023-05-10T17:51:00.011Z,13.91
2023-05-10T17:57:07.119Z,14.07
2023-05-10T18:03:16.630Z,13.59
2023-05-10T18:09:23.474Z,13.38
2023-05-10T18:15:26.623Z,11.72
2023-05-10T18:21:29.172Z,10.81
2023-05-10T18:27:31.581Z,12.07
2023-05-10T18:33:34.037Z,11.00
2023-05-10T18:39:39.523Z,10.21
2023-05-10T18:45:54.050Z,12.28
2023-05-10T18:51:59.514Z,12.44
2023-05-10T18:58:01.997Z,11.08
2023-05-10T19:04:04.537Z,9.11
2023-05-10T19:10:09.950Z,9.54
2023-05-10T19:16:21.849Z,11.53
2023-05-10T19:22:45.507Z,11.39
2023-05-10T19:29:09.650Z,10.84
2023-05-10T19:35:16.272Z,11.21
2023-05-10T19:41:29.542Z,9.81
2023-05-10T19:47:40.467Z,10.15
2023-05-10T19:53:49.608Z,10.78
2023-05-10T19:59:54.563Z,9.10
2023-05-10T20:05:57.459Z,10.95
2023-05-10T20:11:59.958Z,9.61
2023-05-10T20:18:08.540Z,9.66
2023-05-10T20:24:15.243Z,9.52
2023-05-10T20:30:18.695Z,10.57
2023-05-10T20:36:29.940Z,9.93
2023-05-10T20:42:39.518Z,9.84
2023-05-10T20:48:45.608Z,8.10
2023-05-10T20:54:51.481Z,9.24
2023-05-10T21:00:56.913Z,9.04
2023-05-10T21:07:11.036Z,10.16
2023-05-10T21:13:16.894Z,9.00
2023-05-10T21:19:23.406Z,8.07
2023-05-10T21:25:25.531Z,8.38
2023-05-10T21:31:30.130Z,9.52
2023-05-10T21:37:42.076Z,9.50
2023-05-10T21:43:50.326Z,8.72
2023-05-10T21:49:52.814Z,8.59
2023-05-10T21:56:01.317Z,7.74
2023-05-10T22:02:04.084Z,6.02
2023-05-10T22:08:21.580Z,6.36
2023-05-10T22:14:40.014Z,8.09
2023-05-10T22:20:48.343Z,7.94
2023-05-10T22:26:50.818Z,5.38
2023-05-10T22:33:00.213Z,5.36
2023-05-10T22:39:25.205Z,6.47
2023-05-10T22:45:30.466Z,6.03
2023-05-10T22:51:38.652Z,7.06
2023-05-10T22:57:41.425Z,4.32
2023-05-10T23:03:51.753Z,4.37
2023-05-10T23:09:57.373Z,6.76
2023-05-10T23:16:11.728Z,4.44
2023-05-10T23:22:18.469Z,5.99
2023-05-10T23:28:22.088Z,5.94
2023-05-10T23:35:00.566Z,7.08
2023-05-10T23:40:53.985Z,6.48
2023-05-10T23:46:56.468Z,4.80
2023-05-10T23:52:58.921Z,3.42
2023-05-10T23:59:06.534Z,6.13
